Alva, Florida
Current Conditions -  °F | °C
As of 11:53 PM on Thursday 30 Oct 2014 (Local Time) from KRSW Reporting Station
Overcast Overcast  
Wind Chill: 23°   Ceiling: 5000
Heat Index: 23°   Visibility: 10mi
Dew Point: 19°   Wind: 0mph
Humidity: 81%   Direction: NA
Pressure: 29.9"   Gusts: NA
Location:  26.72°N, 81.61°W
Report Text: KRSW 310353Z AUTO 00000KT 10SM BKN050 OVC060 23/19 A2990 RMK AO2 SLP123 T02280194
Loading
Personal Weather Stations






























Interactive Weather Map
Tropical Storm Tracking
New forecast layout! Learn more

10-Day Weather Forecast

Advertisements
Track Severe Weather on mobile